sensor_id;sensor_type;location;lat;lon;timestamp;P1;durP1;ratioP1;P2;durP2;ratioP2
7381;SDS011;3732;48.052;7.800;2022-07-09T00:01:30;3.13;;;2.63;;
7381;SDS011;3732;48.052;7.800;2022-07-09T00:03:58;3.90;;;2.40;;
7381;SDS011;3732;48.052;7.800;2022-07-09T00:06:25;3.83;;;2.90;;
7381;SDS011;3732;48.052;7.800;2022-07-09T00:08:53;4.03;;;2.43;;
7381;SDS011;3732;48.052;7.800;2022-07-09T00:11:22;2.80;;;2.43;;
7381;SDS011;3732;48.052;7.800;2022-07-09T00:13:49;2.63;;;2.40;;
7381;SDS011;3732;48.052;7.800;2022-07-09T00:16:16;4.83;;;2.70;;
7381;SDS011;3732;48.052;7.800;2022-07-09T00:18:43;3.87;;;3.43;;
7381;SDS011;3732;48.052;7.800;2022-07-09T00:21:11;5.50;;;3.00;;
7381;SDS011;3732;48.052;7.800;2022-07-09T00:23:38;8.13;;;2.77;;
7381;SDS011;3732;48.052;7.800;2022-07-09T00:26:05;3.77;;;2.50;;
7381;SDS011;3732;48.052;7.800;2022-07-09T00:28:34;3.63;;;2.80;;
7381;SDS011;3732;48.052;7.800;2022-07-09T00:31:01;3.80;;;2.40;;
7381;SDS011;3732;48.052;7.800;2022-07-09T00:33:28;4.37;;;2.43;;
7381;SDS011;3732;48.052;7.800;2022-07-09T00:35:55;2.60;;;2.40;;
7381;SDS011;3732;48.052;7.800;2022-07-09T00:38:23;5.23;;;2.43;;
7381;SDS011;3732;48.052;7.800;2022-07-09T00:40:50;2.93;;;2.23;;
7381;SDS011;3732;48.052;7.800;2022-07-09T00:43:17;2.80;;;2.47;;
7381;SDS011;3732;48.052;7.800;2022-07-09T00:45:46;5.50;;;2.40;;
7381;SDS011;3732;48.052;7.800;2022-07-09T00:48:14;3.33;;;2.50;;
7381;SDS011;3732;48.052;7.800;2022-07-09T00:50:41;5.27;;;2.40;;
7381;SDS011;3732;48.052;7.800;2022-07-09T00:53:10;3.60;;;2.47;;
7381;SDS011;3732;48.052;7.800;2022-07-09T00:55:37;5.30;;;2.53;;
7381;SDS011;3732;48.052;7.800;2022-07-09T00:58:05;4.63;;;2.77;;
7381;SDS011;3732;48.052;7.800;2022-07-09T01:00:33;3.73;;;2.70;;
7381;SDS011;3732;48.052;7.800;2022-07-09T01:03:01;2.60;;;2.37;;
7381;SDS011;3732;48.052;7.800;2022-07-09T01:05:29;3.13;;;2.57;;
7381;SDS011;3732;48.052;7.800;2022-07-09T01:08:00;3.40;;;2.80;;
7381;SDS011;3732;48.052;7.800;2022-07-09T01:10:28;3.43;;;2.57;;
7381;SDS011;3732;48.052;7.800;2022-07-09T01:12:55;3.90;;;2.47;;
7381;SDS011;3732;48.052;7.800;2022-07-09T01:15:22;4.63;;;2.40;;
7381;SDS011;3732;48.052;7.800;2022-07-09T01:17:49;2.57;;;2.10;;
7381;SDS011;3732;48.052;7.800;2022-07-09T01:20:19;2.57;;;2.37;;
7381;SDS011;3732;48.052;7.800;2022-07-09T01:22:49;3.83;;;2.50;;
7381;SDS011;3732;48.052;7.800;2022-07-09T01:25:17;4.77;;;2.50;;
7381;SDS011;3732;48.052;7.800;2022-07-09T01:27:45;3.23;;;2.27;;
7381;SDS011;3732;48.052;7.800;2022-07-09T01:30:22;4.03;;;2.23;;
7381;SDS011;3732;48.052;7.800;2022-07-09T01:32:49;3.50;;;2.53;;
7381;SDS011;3732;48.052;7.800;2022-07-09T01:35:18;3.07;;;2.80;;
7381;SDS011;3732;48.052;7.800;2022-07-09T01:37:46;4.63;;;2.87;;
7381;SDS011;3732;48.052;7.800;2022-07-09T01:40:13;6.97;;;3.10;;
7381;SDS011;3732;48.052;7.800;2022-07-09T01:42:41;3.37;;;3.07;;
7381;SDS011;3732;48.052;7.800;2022-07-09T01:45:08;4.77;;;3.10;;
7381;SDS011;3732;48.052;7.800;2022-07-09T01:47:35;5.00;;;2.87;;
7381;SDS011;3732;48.052;7.800;2022-07-09T01:50:03;2.83;;;2.63;;
7381;SDS011;3732;48.052;7.800;2022-07-09T01:52:32;5.77;;;3.03;;
7381;SDS011;3732;48.052;7.800;2022-07-09T01:54:59;4.20;;;2.50;;
7381;SDS011;3732;48.052;7.800;2022-07-09T01:57:26;4.20;;;2.60;;
7381;SDS011;3732;48.052;7.800;2022-07-09T01:59:53;5.10;;;2.63;;
7381;SDS011;3732;48.052;7.800;2022-07-09T02:02:20;4.10;;;2.80;;
7381;SDS011;3732;48.052;7.800;2022-07-09T02:04:48;4.37;;;3.23;;
7381;SDS011;3732;48.052;7.800;2022-07-09T02:07:15;4.00;;;3.10;;
7381;SDS011;3732;48.052;7.800;2022-07-09T02:09:43;3.80;;;3.00;;
7381;SDS011;3732;48.052;7.800;2022-07-09T02:12:11;5.37;;;3.57;;
7381;SDS011;3732;48.052;7.800;2022-07-09T02:14:38;3.50;;;3.20;;
7381;SDS011;3732;48.052;7.800;2022-07-09T02:17:05;4.17;;;2.80;;
7381;SDS011;3732;48.052;7.800;2022-07-09T02:19:32;4.13;;;3.10;;
7381;SDS011;3732;48.052;7.800;2022-07-09T02:21:59;3.83;;;3.00;;
7381;SDS011;3732;48.052;7.800;2022-07-09T02:24:27;4.27;;;3.10;;
7381;SDS011;3732;48.052;7.800;2022-07-09T02:26:56;3.70;;;3.20;;
7381;SDS011;3732;48.052;7.800;2022-07-09T02:29:24;3.47;;;2.90;;
7381;SDS011;3732;48.052;7.800;2022-07-09T02:31:51;4.33;;;3.30;;
7381;SDS011;3732;48.052;7.800;2022-07-09T02:34:20;4.53;;;2.93;;
7381;SDS011;3732;48.052;7.800;2022-07-09T02:36:47;4.13;;;3.17;;
7381;SDS011;3732;48.052;7.800;2022-07-09T02:39:14;3.87;;;3.13;;
7381;SDS011;3732;48.052;7.800;2022-07-09T02:41:42;5.73;;;2.80;;
7381;SDS011;3732;48.052;7.800;2022-07-09T02:44:10;5.57;;;2.97;;
7381;SDS011;3732;48.052;7.800;2022-07-09T02:46:38;3.37;;;2.70;;
7381;SDS011;3732;48.052;7.800;2022-07-09T02:49:05;4.77;;;2.80;;
7381;SDS011;3732;48.052;7.800;2022-07-09T02:51:32;4.17;;;2.90;;
7381;SDS011;3732;48.052;7.800;2022-07-09T02:53:59;3.60;;;2.87;;
7381;SDS011;3732;48.052;7.800;2022-07-09T02:56:26;3.93;;;3.10;;
7381;SDS011;3732;48.052;7.800;2022-07-09T02:58:54;3.20;;;2.80;;
7381;SDS011;3732;48.052;7.800;2022-07-09T03:01:22;3.93;;;2.70;;
7381;SDS011;3732;48.052;7.800;2022-07-09T03:03:49;2.87;;;2.60;;
7381;SDS011;3732;48.052;7.800;2022-07-09T03:06:17;3.43;;;2.60;;
7381;SDS011;3732;48.052;7.800;2022-07-09T03:08:44;4.47;;;2.97;;
7381;SDS011;3732;48.052;7.800;2022-07-09T03:11:11;3.40;;;2.80;;
7381;SDS011;3732;48.052;7.800;2022-07-09T03:13:39;4.60;;;2.93;;
7381;SDS011;3732;48.052;7.800;2022-07-09T03:16:06;3.07;;;2.87;;
7381;SDS011;3732;48.052;7.800;2022-07-09T03:18:35;3.87;;;3.03;;
7381;SDS011;3732;48.052;7.800;2022-07-09T03:21:04;7.37;;;3.00;;
7381;SDS011;3732;48.052;7.800;2022-07-09T03:23:33;4.53;;;3.13;;
7381;SDS011;3732;48.052;7.800;2022-07-09T03:26:00;3.73;;;2.90;;
7381;SDS011;3732;48.052;7.800;2022-07-09T03:28:27;4.10;;;3.13;;
7381;SDS011;3732;48.052;7.800;2022-07-09T03:30:54;4.30;;;2.93;;
7381;SDS011;3732;48.052;7.800;2022-07-09T03:33:22;4.90;;;3.20;;
7381;SDS011;3732;48.052;7.800;2022-07-09T03:35:50;3.33;;;2.60;;
7381;SDS011;3732;48.052;7.800;2022-07-09T03:38:17;5.73;;;3.13;;
7381;SDS011;3732;48.052;7.800;2022-07-09T03:40:45;3.30;;;3.00;;
7381;SDS011;3732;48.052;7.800;2022-07-09T03:43:12;3.33;;;2.73;;
7381;SDS011;3732;48.052;7.800;2022-07-09T03:45:39;5.80;;;2.80;;
7381;SDS011;3732;48.052;7.800;2022-07-09T03:48:07;3.73;;;2.83;;
7381;SDS011;3732;48.052;7.800;2022-07-09T03:50:34;5.33;;;3.00;;
7381;SDS011;3732;48.052;7.800;2022-07-09T03:53:03;4.30;;;3.10;;
7381;SDS011;3732;48.052;7.800;2022-07-09T03:55:30;4.53;;;3.60;;
7381;SDS011;3732;48.052;7.800;2022-07-09T03:57:57;4.17;;;3.00;;
7381;SDS011;3732;48.052;7.800;2022-07-09T04:00:24;3.23;;;2.93;;
7381;SDS011;3732;48.052;7.800;2022-07-09T04:02:53;3.50;;;3.17;;
7381;SDS011;3732;48.052;7.800;2022-07-09T04:05:20;2.90;;;2.70;;
7381;SDS011;3732;48.052;7.800;2022-07-09T04:07:47;3.47;;;3.13;;
7381;SDS011;3732;48.052;7.800;2022-07-09T04:10:16;4.00;;;3.33;;
7381;SDS011;3732;48.052;7.800;2022-07-09T04:12:43;3.27;;;2.97;;
7381;SDS011;3732;48.052;7.800;2022-07-09T04:15:10;3.10;;;2.80;;
7381;SDS011;3732;48.052;7.800;2022-07-09T04:17:37;4.40;;;2.80;;
7381;SDS011;3732;48.052;7.800;2022-07-09T04:20:05;3.70;;;3.23;;
7381;SDS011;3732;48.052;7.800;2022-07-09T04:22:33;2.97;;;2.77;;
7381;SDS011;3732;48.052;7.800;2022-07-09T04:25:00;4.67;;;2.80;;
7381;SDS011;3732;48.052;7.800;2022-07-09T04:27:28;5.13;;;3.10;;
7381;SDS011;3732;48.052;7.800;2022-07-09T04:29:56;6.03;;;2.87;;
7381;SDS011;3732;48.052;7.800;2022-07-09T04:32:23;4.30;;;3.13;;
7381;SDS011;3732;48.052;7.800;2022-07-09T04:34:51;3.30;;;3.00;;
7381;SDS011;3732;48.052;7.800;2022-07-09T04:37:18;3.47;;;3.00;;
7381;SDS011;3732;48.052;7.800;2022-07-09T04:39:45;3.40;;;3.07;;
7381;SDS011;3732;48.052;7.800;2022-07-09T04:42:12;4.20;;;3.40;;
7381;SDS011;3732;48.052;7.800;2022-07-09T04:44:41;4.10;;;3.67;;
7381;SDS011;3732;48.052;7.800;2022-07-09T04:47:08;5.13;;;3.60;;
7381;SDS011;3732;48.052;7.800;2022-07-09T04:49:35;6.10;;;3.63;;
7381;SDS011;3732;48.052;7.800;2022-07-09T04:52:03;3.97;;;3.53;;
7381;SDS011;3732;48.052;7.800;2022-07-09T04:54:30;5.13;;;3.33;;
7381;SDS011;3732;48.052;7.800;2022-07-09T04:56:57;4.03;;;3.40;;
7381;SDS011;3732;48.052;7.800;2022-07-09T04:59:24;4.30;;;3.60;;
7381;SDS011;3732;48.052;7.800;2022-07-09T05:01:53;3.93;;;3.60;;
7381;SDS011;3732;48.052;7.800;2022-07-09T05:04:21;4.07;;;3.50;;
7381;SDS011;3732;48.052;7.800;2022-07-09T05:06:48;5.57;;;3.70;;
7381;SDS011;3732;48.052;7.800;2022-07-09T05:09:15;5.43;;;3.73;;
7381;SDS011;3732;48.052;7.800;2022-07-09T05:11:42;4.97;;;3.20;;
7381;SDS011;3732;48.052;7.800;2022-07-09T05:14:09;3.30;;;3.00;;
7381;SDS011;3732;48.052;7.800;2022-07-09T05:16:37;4.63;;;3.10;;
7381;SDS011;3732;48.052;7.800;2022-07-09T05:19:10;4.87;;;3.17;;
7381;SDS011;3732;48.052;7.800;2022-07-09T05:21:37;5.83;;;3.07;;
7381;SDS011;3732;48.052;7.800;2022-07-09T05:24:05;5.60;;;2.77;;
7381;SDS011;3732;48.052;7.800;2022-07-09T05:26:33;3.80;;;2.63;;
7381;SDS011;3732;48.052;7.800;2022-07-09T05:29:01;3.43;;;2.80;;
7381;SDS011;3732;48.052;7.800;2022-07-09T05:31:28;4.10;;;2.10;;
7381;SDS011;3732;48.052;7.800;2022-07-09T05:33:55;3.97;;;2.33;;
7381;SDS011;3732;48.052;7.800;2022-07-09T05:36:24;2.90;;;2.03;;
7381;SDS011;3732;48.052;7.800;2022-07-09T05:38:53;3.33;;;2.40;;
7381;SDS011;3732;48.052;7.800;2022-07-09T05:41:20;2.67;;;2.20;;
7381;SDS011;3732;48.052;7.800;2022-07-09T05:43:48;3.33;;;2.10;;
7381;SDS011;3732;48.052;7.800;2022-07-09T05:46:15;3.23;;;1.70;;
7381;SDS011;3732;48.052;7.800;2022-07-09T05:48:42;3.73;;;1.80;;
7381;SDS011;3732;48.052;7.800;2022-07-09T05:51:09;2.37;;;1.77;;
7381;SDS011;3732;48.052;7.800;2022-07-09T05:53:38;1.77;;;1.67;;
7381;SDS011;3732;48.052;7.800;2022-07-09T05:56:06;5.17;;;1.80;;
7381;SDS011;3732;48.052;7.800;2022-07-09T05:58:33;3.57;;;1.77;;
7381;SDS011;3732;48.052;7.800;2022-07-09T06:01:03;2.37;;;1.40;;
7381;SDS011;3732;48.052;7.800;2022-07-09T06:03:34;2.30;;;1.40;;
7381;SDS011;3732;48.052;7.800;2022-07-09T06:09:26;2.10;;;1.50;;
7381;SDS011;3732;48.052;7.800;2022-07-09T06:11:56;3.13;;;1.37;;
7381;SDS011;3732;48.052;7.800;2022-07-09T06:14:23;1.73;;;1.63;;
7381;SDS011;3732;48.052;7.800;2022-07-09T06:16:51;3.67;;;1.60;;
7381;SDS011;3732;48.052;7.800;2022-07-09T06:19:20;1.77;;;1.30;;
7381;SDS011;3732;48.052;7.800;2022-07-09T06:21:47;3.03;;;1.60;;
7381;SDS011;3732;48.052;7.800;2022-07-09T06:24:14;2.53;;;1.43;;
7381;SDS011;3732;48.052;7.800;2022-07-09T06:26:43;4.07;;;1.70;;
7381;SDS011;3732;48.052;7.800;2022-07-09T06:29:12;4.40;;;1.80;;
7381;SDS011;3732;48.052;7.800;2022-07-09T06:31:39;2.53;;;1.40;;
7381;SDS011;3732;48.052;7.800;2022-07-09T06:34:08;3.53;;;1.77;;
7381;SDS011;3732;48.052;7.800;2022-07-09T06:36:37;4.10;;;1.90;;
7381;SDS011;3732;48.052;7.800;2022-07-09T06:39:05;1.97;;;1.63;;
7381;SDS011;3732;48.052;7.800;2022-07-09T06:41:51;2.73;;;1.50;;
7381;SDS011;3732;48.052;7.800;2022-07-09T06:44:18;5.20;;;2.30;;
7381;SDS011;3732;48.052;7.800;2022-07-09T06:46:45;3.07;;;1.80;;
7381;SDS011;3732;48.052;7.800;2022-07-09T06:49:12;2.93;;;1.53;;
7381;SDS011;3732;48.052;7.800;2022-07-09T06:51:39;1.83;;;1.60;;
7381;SDS011;3732;48.052;7.800;2022-07-09T06:54:07;3.43;;;1.60;;
7381;SDS011;3732;48.052;7.800;2022-07-09T06:56:34;3.50;;;1.50;;
7381;SDS011;3732;48.052;7.800;2022-07-09T06:59:02;1.53;;;1.43;;
7381;SDS011;3732;48.052;7.800;2022-07-09T07:01:30;3.27;;;1.83;;
7381;SDS011;3732;48.052;7.800;2022-07-09T07:03:57;1.80;;;1.60;;
7381;SDS011;3732;48.052;7.800;2022-07-09T07:06:24;3.77;;;1.63;;
7381;SDS011;3732;48.052;7.800;2022-07-09T07:08:51;1.83;;;1.50;;
7381;SDS011;3732;48.052;7.800;2022-07-09T07:11:19;2.17;;;1.60;;
7381;SDS011;3732;48.052;7.800;2022-07-09T07:13:46;1.53;;;1.43;;
7381;SDS011;3732;48.052;7.800;2022-07-09T07:16:14;3.83;;;1.33;;
7381;SDS011;3732;48.052;7.800;2022-07-09T07:18:42;2.93;;;1.50;;
7381;SDS011;3732;48.052;7.800;2022-07-09T07:21:09;2.73;;;2.00;;
7381;SDS011;3732;48.052;7.800;2022-07-09T07:23:36;2.87;;;1.27;;
7381;SDS011;3732;48.052;7.800;2022-07-09T07:26:04;6.03;;;1.60;;
7381;SDS011;3732;48.052;7.800;2022-07-09T07:28:31;2.17;;;1.30;;
7381;SDS011;3732;48.052;7.800;2022-07-09T07:30:58;1.73;;;1.37;;
7381;SDS011;3732;48.052;7.800;2022-07-09T07:33:27;2.63;;;1.80;;
7381;SDS011;3732;48.052;7.800;2022-07-09T07:35:54;2.90;;;2.10;;
7381;SDS011;3732;48.052;7.800;2022-07-09T07:38:21;3.70;;;2.00;;
7381;SDS011;3732;48.052;7.800;2022-07-09T07:40:52;5.70;;;2.20;;
7381;SDS011;3732;48.052;7.800;2022-07-09T07:43:19;3.27;;;2.13;;
7381;SDS011;3732;48.052;7.800;2022-07-09T07:45:46;2.90;;;1.80;;
7381;SDS011;3732;48.052;7.800;2022-07-09T07:48:14;3.83;;;1.83;;
7381;SDS011;3732;48.052;7.800;2022-07-09T07:50:42;3.20;;;1.57;;
7381;SDS011;3732;48.052;7.800;2022-07-09T07:53:10;2.03;;;1.40;;
7381;SDS011;3732;48.052;7.800;2022-07-09T07:55:37;1.20;;;1.03;;
7381;SDS011;3732;48.052;7.800;2022-07-09T07:58:04;2.93;;;1.60;;
7381;SDS011;3732;48.052;7.800;2022-07-09T08:00:32;2.30;;;1.30;;
7381;SDS011;3732;48.052;7.800;2022-07-09T08:02:59;2.47;;;1.47;;
7381;SDS011;3732;48.052;7.800;2022-07-09T08:05:26;1.80;;;1.23;;
7381;SDS011;3732;48.052;7.800;2022-07-09T08:07:55;2.23;;;1.40;;
7381;SDS011;3732;48.052;7.800;2022-07-09T08:10:22;3.20;;;1.70;;
7381;SDS011;3732;48.052;7.800;2022-07-09T08:12:51;4.00;;;1.23;;
7381;SDS011;3732;48.052;7.800;2022-07-09T08:15:18;2.67;;;1.40;;
7381;SDS011;3732;48.052;7.800;2022-07-09T08:17:46;2.57;;;1.40;;
7381;SDS011;3732;48.052;7.800;2022-07-09T08:20:13;3.63;;;1.53;;
7381;SDS011;3732;48.052;7.800;2022-07-09T08:22:40;1.47;;;1.17;;
7381;SDS011;3732;48.052;7.800;2022-07-09T08:25:09;4.63;;;1.30;;
7381;SDS011;3732;48.052;7.800;2022-07-09T08:27:36;3.03;;;1.30;;
7381;SDS011;3732;48.052;7.800;2022-07-09T08:30:03;1.47;;;1.17;;
7381;SDS011;3732;48.052;7.800;2022-07-09T08:32:31;3.07;;;1.40;;
7381;SDS011;3732;48.052;7.800;2022-07-09T08:34:58;3.30;;;1.23;;
7381;SDS011;3732;48.052;7.800;2022-07-09T08:37:25;4.23;;;2.30;;
7381;SDS011;3732;48.052;7.800;2022-07-09T08:39:52;2.17;;;1.50;;
7381;SDS011;3732;48.052;7.800;2022-07-09T08:42:21;1.93;;;1.57;;
7381;SDS011;3732;48.052;7.800;2022-07-09T08:44:48;2.20;;;1.13;;
7381;SDS011;3732;48.052;7.800;2022-07-09T08:47:15;3.73;;;1.47;;
7381;SDS011;3732;48.052;7.800;2022-07-09T08:49:43;3.00;;;1.30;;
7381;SDS011;3732;48.052;7.800;2022-07-09T08:52:10;2.77;;;1.23;;
7381;SDS011;3732;48.052;7.800;2022-07-09T08:54:37;3.47;;;1.73;;
7381;SDS011;3732;48.052;7.800;2022-07-09T09:00:12;2.43;;;1.40;;
7381;SDS011;3732;48.052;7.800;2022-07-09T09:02:39;3.43;;;1.77;;
7381;SDS011;3732;48.052;7.800;2022-07-09T09:05:13;4.40;;;1.57;;
7381;SDS011;3732;48.052;7.800;2022-07-09T09:07:41;1.60;;;1.30;;
7381;SDS011;3732;48.052;7.800;2022-07-09T09:10:08;3.10;;;1.47;;
7381;SDS011;3732;48.052;7.800;2022-07-09T09:12:36;1.43;;;1.10;;
7381;SDS011;3732;48.052;7.800;2022-07-09T09:15:06;2.50;;;1.30;;
7381;SDS011;3732;48.052;7.800;2022-07-09T09:17:41;1.40;;;1.30;;
7381;SDS011;3732;48.052;7.800;2022-07-09T09:20:12;2.60;;;1.50;;
7381;SDS011;3732;48.052;7.800;2022-07-09T09:22:43;4.23;;;1.60;;
7381;SDS011;3732;48.052;7.800;2022-07-09T09:25:14;5.67;;;1.60;;
7381;SDS011;3732;48.052;7.800;2022-07-09T09:27:49;3.70;;;1.50;;
7381;SDS011;3732;48.052;7.800;2022-07-09T09:30:16;2.57;;;1.33;;
7381;SDS011;3732;48.052;7.800;2022-07-09T09:32:45;2.03;;;1.33;;
7381;SDS011;3732;48.052;7.800;2022-07-09T09:35:20;2.63;;;1.47;;
7381;SDS011;3732;48.052;7.800;2022-07-09T09:37:47;2.57;;;1.57;;
7381;SDS011;3732;48.052;7.800;2022-07-09T09:40:15;1.80;;;1.57;;
7381;SDS011;3732;48.052;7.800;2022-07-09T09:42:43;1.80;;;1.67;;
7381;SDS011;3732;48.052;7.800;2022-07-09T09:45:12;4.60;;;1.80;;
7381;SDS011;3732;48.052;7.800;2022-07-09T09:47:40;4.97;;;1.80;;
7381;SDS011;3732;48.052;7.800;2022-07-09T09:50:11;4.33;;;1.70;;
7381;SDS011;3732;48.052;7.800;2022-07-09T09:52:42;1.50;;;1.23;;
7381;SDS011;3732;48.052;7.800;2022-07-09T09:55:12;4.57;;;1.67;;
7381;SDS011;3732;48.052;7.800;2022-07-09T09:57:40;4.43;;;1.97;;
7381;SDS011;3732;48.052;7.800;2022-07-09T10:00:08;2.23;;;1.57;;
7381;SDS011;3732;48.052;7.800;2022-07-09T10:02:35;7.97;;;1.97;;
7381;SDS011;3732;48.052;7.800;2022-07-09T10:05:05;2.90;;;1.50;;
7381;SDS011;3732;48.052;7.800;2022-07-09T10:07:33;2.10;;;1.30;;
7381;SDS011;3732;48.052;7.800;2022-07-09T10:10:01;5.00;;;1.77;;
7381;SDS011;3732;48.052;7.800;2022-07-09T10:12:29;2.67;;;1.60;;
7381;SDS011;3732;48.052;7.800;2022-07-09T10:14:56;3.40;;;1.50;;
7381;SDS011;3732;48.052;7.800;2022-07-09T10:20:30;3.70;;;1.87;;
7381;SDS011;3732;48.052;7.800;2022-07-09T10:23:00;3.90;;;1.60;;
7381;SDS011;3732;48.052;7.800;2022-07-09T10:25:29;3.10;;;1.57;;
7381;SDS011;3732;48.052;7.800;2022-07-09T10:27:56;2.33;;;1.47;;
7381;SDS011;3732;48.052;7.800;2022-07-09T10:30:24;4.20;;;1.70;;
7381;SDS011;3732;48.052;7.800;2022-07-09T10:33:02;4.80;;;1.60;;
7381;SDS011;3732;48.052;7.800;2022-07-09T10:35:29;2.17;;;1.60;;
7381;SDS011;3732;48.052;7.800;2022-07-09T10:37:56;3.00;;;1.55;;
7381;SDS011;3732;48.052;7.800;2022-07-09T10:40:25;3.03;;;1.40;;
7381;SDS011;3732;48.052;7.800;2022-07-09T10:42:59;3.13;;;1.50;;
7381;SDS011;3732;48.052;7.800;2022-07-09T10:45:27;1.87;;;1.27;;
7381;SDS011;3732;48.052;7.800;2022-07-09T10:47:57;2.70;;;1.70;;
7381;SDS011;3732;48.052;7.800;2022-07-09T10:50:25;2.37;;;1.50;;
7381;SDS011;3732;48.052;7.800;2022-07-09T10:52:53;2.73;;;1.63;;
7381;SDS011;3732;48.052;7.800;2022-07-09T10:55:21;1.63;;;1.30;;
7381;SDS011;3732;48.052;7.800;2022-07-09T10:57:50;2.70;;;1.50;;
7381;SDS011;3732;48.052;7.800;2022-07-09T11:00:17;2.27;;;1.63;;
7381;SDS011;3732;48.052;7.800;2022-07-09T11:02:51;2.37;;;1.43;;
7381;SDS011;3732;48.052;7.800;2022-07-09T11:05:19;2.83;;;1.53;;
7381;SDS011;3732;48.052;7.800;2022-07-09T11:07:53;2.27;;;1.50;;
7381;SDS011;3732;48.052;7.800;2022-07-09T11:10:21;2.97;;;1.47;;
7381;SDS011;3732;48.052;7.800;2022-07-09T11:12:49;2.50;;;1.50;;
7381;SDS011;3732;48.052;7.800;2022-07-09T11:15:17;3.00;;;1.60;;
7381;SDS011;3732;48.052;7.800;2022-07-09T11:17:44;5.00;;;1.73;;
7381;SDS011;3732;48.052;7.800;2022-07-09T11:20:11;4.03;;;1.40;;
7381;SDS011;3732;48.052;7.800;2022-07-09T11:22:38;5.17;;;1.57;;
7381;SDS011;3732;48.052;7.800;2022-07-09T11:25:14;2.23;;;1.33;;
7381;SDS011;3732;48.052;7.800;2022-07-09T11:27:41;2.03;;;1.40;;
7381;SDS011;3732;48.052;7.800;2022-07-09T11:30:12;4.77;;;1.57;;
7381;SDS011;3732;48.052;7.800;2022-07-09T11:32:40;1.83;;;1.47;;
7381;SDS011;3732;48.052;7.800;2022-07-09T11:35:08;3.20;;;1.37;;
7381;SDS011;3732;48.052;7.800;2022-07-09T11:37:35;3.10;;;1.70;;
7381;SDS011;3732;48.052;7.800;2022-07-09T11:40:03;2.90;;;1.70;;
7381;SDS011;3732;48.052;7.800;2022-07-09T11:42:30;2.33;;;1.30;;
7381;SDS011;3732;48.052;7.800;2022-07-09T11:44:58;2.73;;;1.20;;
7381;SDS011;3732;48.052;7.800;2022-07-09T11:47:33;1.73;;;1.30;;
7381;SDS011;3732;48.052;7.800;2022-07-09T11:50:04;1.13;;;1.03;;
7381;SDS011;3732;48.052;7.800;2022-07-09T11:52:31;1.97;;;1.10;;
7381;SDS011;3732;48.052;7.800;2022-07-09T11:54:59;3.00;;;1.30;;
7381;SDS011;3732;48.052;7.800;2022-07-09T11:57:27;1.33;;;1.23;;
7381;SDS011;3732;48.052;7.800;2022-07-09T11:59:54;2.63;;;1.37;;
7381;SDS011;3732;48.052;7.800;2022-07-09T12:02:22;1.43;;;1.30;;
7381;SDS011;3732;48.052;7.800;2022-07-09T12:04:51;2.20;;;1.47;;
7381;SDS011;3732;48.052;7.800;2022-07-09T12:07:18;3.70;;;1.27;;
7381;SDS011;3732;48.052;7.800;2022-07-09T12:09:45;3.03;;;1.30;;
7381;SDS011;3732;48.052;7.800;2022-07-09T12:12:13;1.87;;;1.20;;
7381;SDS011;3732;48.052;7.800;2022-07-09T12:14:40;1.40;;;1.20;;
7381;SDS011;3732;48.052;7.800;2022-07-09T12:17:17;2.13;;;1.40;;
7381;SDS011;3732;48.052;7.800;2022-07-09T12:19:45;2.00;;;1.20;;
7381;SDS011;3732;48.052;7.800;2022-07-09T12:22:13;4.03;;;1.70;;
7381;SDS011;3732;48.052;7.800;2022-07-09T12:24:41;0.80;;;0.80;;
7381;SDS011;3732;48.052;7.800;2022-07-09T12:27:08;4.07;;;1.20;;
7381;SDS011;3732;48.052;7.800;2022-07-09T12:29:35;1.63;;;1.10;;
7381;SDS011;3732;48.052;7.800;2022-07-09T12:32:03;2.40;;;1.40;;
7381;SDS011;3732;48.052;7.800;2022-07-09T12:34:30;3.67;;;1.10;;
7381;SDS011;3732;48.052;7.800;2022-07-09T12:36:57;1.60;;;1.33;;
7381;SDS011;3732;48.052;7.800;2022-07-09T12:39:26;1.47;;;0.80;;
7381;SDS011;3732;48.052;7.800;2022-07-09T12:41:53;1.20;;;1.10;;
7381;SDS011;3732;48.052;7.800;2022-07-09T12:44:20;2.80;;;1.40;;
7381;SDS011;3732;48.052;7.800;2022-07-09T12:46:48;1.93;;;1.40;;
7381;SDS011;3732;48.052;7.800;2022-07-09T12:49:15;3.50;;;1.30;;
7381;SDS011;3732;48.052;7.800;2022-07-09T12:51:42;1.97;;;1.10;;
7381;SDS011;3732;48.052;7.800;2022-07-09T12:57:15;1.57;;;1.10;;
7381;SDS011;3732;48.052;7.800;2022-07-09T12:59:42;1.27;;;1.13;;
7381;SDS011;3732;48.052;7.800;2022-07-09T13:02:09;1.57;;;1.10;;
7381;SDS011;3732;48.052;7.800;2022-07-09T13:04:37;2.70;;;1.30;;
7381;SDS011;3732;48.052;7.800;2022-07-09T13:07:04;2.53;;;1.43;;
7381;SDS011;3732;48.052;7.800;2022-07-09T13:09:31;1.43;;;1.10;;
7381;SDS011;3732;48.052;7.800;2022-07-09T13:11:59;2.43;;;1.50;;
7381;SDS011;3732;48.052;7.800;2022-07-09T13:14:27;2.17;;;1.60;;
7381;SDS011;3732;48.052;7.800;2022-07-09T13:16:55;1.37;;;1.23;;
7381;SDS011;3732;48.052;7.800;2022-07-09T13:19:22;1.67;;;1.20;;
7381;SDS011;3732;48.052;7.800;2022-07-09T13:21:49;1.30;;;1.00;;
7381;SDS011;3732;48.052;7.800;2022-07-09T13:24:16;2.90;;;1.13;;
7381;SDS011;3732;48.052;7.800;2022-07-09T13:26:44;2.73;;;1.60;;
7381;SDS011;3732;48.052;7.800;2022-07-09T13:29:11;3.87;;;1.40;;
7381;SDS011;3732;48.052;7.800;2022-07-09T13:31:39;1.40;;;1.27;;
7381;SDS011;3732;48.052;7.800;2022-07-09T13:34:07;1.97;;;1.30;;
7381;SDS011;3732;48.052;7.800;2022-07-09T13:36:34;1.90;;;1.10;;
7381;SDS011;3732;48.052;7.800;2022-07-09T13:39:01;2.37;;;1.20;;
7381;SDS011;3732;48.052;7.800;2022-07-09T13:41:28;1.00;;;1.00;;
7381;SDS011;3732;48.052;7.800;2022-07-09T13:43:55;2.10;;;1.37;;
7381;SDS011;3732;48.052;7.800;2022-07-09T13:46:23;1.77;;;1.30;;
7381;SDS011;3732;48.052;7.800;2022-07-09T13:48:51;1.43;;;1.33;;
7381;SDS011;3732;48.052;7.800;2022-07-09T13:51:18;1.80;;;1.27;;
7381;SDS011;3732;48.052;7.800;2022-07-09T13:53:46;1.73;;;1.37;;
7381;SDS011;3732;48.052;7.800;2022-07-09T13:56:13;1.20;;;1.00;;
7381;SDS011;3732;48.052;7.800;2022-07-09T13:58:40;2.63;;;1.27;;
7381;SDS011;3732;48.052;7.800;2022-07-09T14:01:08;5.53;;;1.30;;
7381;SDS011;3732;48.052;7.800;2022-07-09T14:03:35;1.47;;;1.07;;
7381;SDS011;3732;48.052;7.800;2022-07-09T14:06:04;2.27;;;1.37;;
7381;SDS011;3732;48.052;7.800;2022-07-09T14:08:31;1.37;;;1.17;;
7381;SDS011;3732;48.052;7.800;2022-07-09T14:10:58;4.37;;;1.60;;
7381;SDS011;3732;48.052;7.800;2022-07-09T14:13:26;0.93;;;0.93;;
7381;SDS011;3732;48.052;7.800;2022-07-09T14:15:55;1.37;;;0.90;;
7381;SDS011;3732;48.052;7.800;2022-07-09T14:18:22;2.10;;;1.30;;
7381;SDS011;3732;48.052;7.800;2022-07-09T14:20:49;1.50;;;1.20;;
7381;SDS011;3732;48.052;7.800;2022-07-09T14:23:18;1.70;;;1.60;;
7381;SDS011;3732;48.052;7.800;2022-07-09T14:25:45;2.23;;;1.47;;
7381;SDS011;3732;48.052;7.800;2022-07-09T14:28:12;2.30;;;1.40;;
7381;SDS011;3732;48.052;7.800;2022-07-09T14:30:40;1.53;;;1.17;;
7381;SDS011;3732;48.052;7.800;2022-07-09T14:33:07;2.57;;;1.40;;
7381;SDS011;3732;48.052;7.800;2022-07-09T14:35:34;2.63;;;1.30;;
7381;SDS011;3732;48.052;7.800;2022-07-09T14:38:02;2.80;;;1.30;;
7381;SDS011;3732;48.052;7.800;2022-07-09T14:40:30;1.30;;;1.20;;
7381;SDS011;3732;48.052;7.800;2022-07-09T14:42:58;1.90;;;1.50;;
7381;SDS011;3732;48.052;7.800;2022-07-09T14:45:25;2.67;;;1.33;;
7381;SDS011;3732;48.052;7.800;2022-07-09T14:47:52;2.67;;;1.40;;
7381;SDS011;3732;48.052;7.800;2022-07-09T14:50:20;2.93;;;1.40;;
7381;SDS011;3732;48.052;7.800;2022-07-09T14:52:48;2.70;;;1.40;;
7381;SDS011;3732;48.052;7.800;2022-07-09T14:55:15;2.80;;;1.40;;
7381;SDS011;3732;48.052;7.800;2022-07-09T14:57:44;3.07;;;1.17;;
7381;SDS011;3732;48.052;7.800;2022-07-09T15:00:11;1.77;;;1.47;;
7381;SDS011;3732;48.052;7.800;2022-07-09T15:02:38;2.47;;;1.40;;
7381;SDS011;3732;48.052;7.800;2022-07-09T15:05:06;2.97;;;1.13;;
7381;SDS011;3732;48.052;7.800;2022-07-09T15:07:33;1.30;;;1.20;;
7381;SDS011;3732;48.052;7.800;2022-07-09T15:10:01;2.20;;;1.27;;
7381;SDS011;3732;48.052;7.800;2022-07-09T15:12:28;4.37;;;1.20;;
7381;SDS011;3732;48.052;7.800;2022-07-09T15:14:57;1.40;;;1.10;;
7381;SDS011;3732;48.052;7.800;2022-07-09T15:17:24;1.73;;;1.17;;
7381;SDS011;3732;48.052;7.800;2022-07-09T15:19:51;1.50;;;1.40;;
7381;SDS011;3732;48.052;7.800;2022-07-09T15:22:18;1.30;;;1.20;;
7381;SDS011;3732;48.052;7.800;2022-07-09T15:24:46;1.10;;;1.00;;
7381;SDS011;3732;48.052;7.800;2022-07-09T15:27:13;1.10;;;1.00;;
7381;SDS011;3732;48.052;7.800;2022-07-09T15:29:40;1.60;;;1.23;;
7381;SDS011;3732;48.052;7.800;2022-07-09T15:32:09;1.33;;;1.23;;